createdAt,value
2018-02-23T00:00:22.202Z,74.40
2018-02-23T00:01:22.202Z,74.68
2018-02-23T00:02:22.208Z,74.49
2018-02-23T00:03:22.210Z,75.02
2018-02-23T00:04:22.245Z,74.55
2018-02-23T00:05:22.208Z,75.24
2018-02-23T00:06:22.219Z,75.24
2018-02-23T00:07:22.210Z,74.58
2018-02-23T00:08:22.207Z,74.40
2018-02-23T00:09:22.211Z,74.58
2018-02-23T00:10:22.214Z,74.77
2018-02-23T00:11:22.212Z,74.77
2018-02-23T00:12:22.212Z,74.30
2018-02-23T00:13:22.213Z,74.49
2018-02-23T00:14:22.212Z,74.77
2018-02-23T00:15:22.213Z,74.49
2018-02-23T00:16:22.217Z,74.58
2018-02-23T00:17:22.213Z,74.77
2018-02-23T00:18:22.222Z,74.30
2018-02-23T00:19:22.218Z,74.49
2018-02-23T00:20:22.217Z,74.02
2018-02-23T00:21:22.227Z,73.73
2018-02-23T00:22:22.235Z,73.64
2018-02-23T00:23:22.222Z,73.73
2018-02-23T00:24:22.220Z,73.73
2018-02-23T00:25:22.222Z,73.45
2018-02-23T00:26:22.227Z,73.92
2018-02-23T00:27:22.224Z,73.54
2018-02-23T00:28:22.228Z,73.73
2018-02-23T00:29:22.226Z,73.45
2018-02-23T00:30:22.226Z,73.64
2018-02-23T00:31:22.231Z,73.92
2018-02-23T00:32:22.227Z,74.49
2018-02-23T00:33:22.229Z,74.30
2018-02-23T00:34:22.238Z,74.40
2018-02-23T00:35:22.230Z,74.21
2018-02-23T00:36:22.235Z,74.21
2018-02-23T00:37:22.236Z,74.21
2018-02-23T00:38:22.238Z,74.77
2018-02-23T00:39:22.248Z,74.40
2018-02-23T00:40:22.236Z,74.49
2018-02-23T00:41:22.247Z,74.40
2018-02-23T00:42:22.243Z,75.24
2018-02-23T00:43:22.247Z,75.24
2018-02-23T00:44:22.238Z,74.96
2018-02-23T00:45:22.238Z,74.96
2018-02-23T00:46:22.246Z,75.05
2018-02-23T00:47:22.246Z,75.05
2018-02-23T00:48:22.247Z,74.96
2018-02-23T00:49:22.243Z,74.68
2018-02-23T00:50:22.249Z,74.96
2018-02-23T00:51:22.245Z,75.24
2018-02-23T00:52:22.251Z,75.43
2018-02-23T00:53:22.248Z,75.15
2018-02-23T00:54:22.251Z,75.34
2018-02-23T00:55:22.261Z,75.62
2018-02-23T00:56:22.260Z,75.81
2018-02-23T00:57:22.255Z,75.72
2018-02-23T00:58:22.256Z,75.62
2018-02-23T00:59:22.250Z,75.43
2018-02-23T01:00:22.261Z,75.62
2018-02-23T01:01:22.255Z,74.96
2018-02-23T01:02:22.261Z,74.77
2018-02-23T01:03:22.259Z,74.96
2018-02-23T01:04:22.264Z,74.96
2018-02-23T01:05:22.264Z,75.53
2018-02-23T01:06:22.260Z,75.43
2018-02-23T01:07:22.262Z,76.00
2018-02-23T01:08:22.260Z,76.19
2018-02-23T01:09:22.263Z,76.57
2018-02-23T01:10:22.263Z,76.48
2018-02-23T01:11:22.275Z,76.57
2018-02-23T01:12:22.267Z,76.57
2018-02-23T01:13:22.270Z,76.86
2018-02-23T01:14:22.266Z,77.14
2018-02-23T01:15:22.273Z,76.95
2018-02-23T01:16:22.273Z,77.23
2018-02-23T01:17:22.278Z,77.04
2018-02-23T01:18:22.274Z,77.70
2018-02-23T01:19:22.276Z,77.33
2018-02-23T01:20:22.282Z,77.61
2018-02-23T01:21:22.275Z,77.61
2018-02-23T01:22:22.280Z,77.61
2018-02-23T01:23:22.288Z,77.61
2018-02-23T01:24:22.273Z,77.89
2018-02-23T01:25:22.277Z,78.18
2018-02-23T01:26:22.283Z,78.27
2018-02-23T01:27:22.283Z,78.46
2018-02-23T01:28:22.280Z,78.85
2018-02-23T01:29:22.292Z,78.56
2018-02-23T01:30:22.286Z,78.65
2018-02-23T01:31:22.288Z,78.65
2018-02-23T01:32:22.286Z,78.65
2018-02-23T01:33:22.289Z,78.56
2018-02-23T01:34:22.302Z,79.03
2018-02-23T01:35:22.293Z,78.85
2018-02-23T01:36:22.291Z,78.94
2018-02-23T01:37:22.289Z,78.75
2018-02-23T01:38:22.297Z,78.56
2018-02-23T01:39:22.296Z,78.75
2018-02-23T01:40:22.301Z,79.03
2018-02-23T01:41:22.292Z,79.60
2018-02-23T01:42:22.293Z,79.60
2018-02-23T01:43:22.301Z,79.41
2018-02-23T01:44:22.300Z,79.32
2018-02-23T01:45:22.299Z,79.69
2018-02-23T01:46:22.300Z,79.50
2018-02-23T01:47:22.297Z,79.69
2018-02-23T01:48:22.301Z,79.60
2018-02-23T01:49:22.300Z,79.22
2018-02-23T01:50:22.301Z,79.22
2018-02-23T01:51:22.310Z,79.60
2018-02-23T01:52:22.305Z,79.69
2018-02-23T01:53:22.306Z,79.60
2018-02-23T01:54:22.305Z,79.32
2018-02-23T01:55:22.309Z,79.69
2018-02-23T01:56:22.311Z,79.79
2018-02-23T01:57:22.308Z,79.88
2018-02-23T01:58:22.305Z,79.69
2018-02-23T01:59:22.310Z,80.07
2018-02-23T02:00:22.311Z,79.50
2018-02-23T02:01:22.309Z,79.32
2018-02-23T02:02:22.315Z,79.98
2018-02-23T02:03:22.316Z,79.41
2018-02-23T02:04:22.321Z,79.60
2018-02-23T02:05:22.320Z,79.60
2018-02-23T02:06:22.317Z,79.41
2018-02-23T02:07:22.314Z,79.60
2018-02-23T02:08:22.333Z,79.60
2018-02-23T02:09:22.320Z,79.98
2018-02-23T02:10:22.317Z,79.98
2018-02-23T02:11:22.321Z,80.26
2018-02-23T02:12:22.332Z,80.07
2018-02-23T02:13:22.324Z,79.98
2018-02-23T02:14:22.321Z,79.98
2018-02-23T02:15:22.325Z,79.60
2018-02-23T02:16:22.326Z,79.69
2018-02-23T02:17:22.332Z,80.07
2018-02-23T02:18:22.328Z,79.88
2018-02-23T02:19:22.333Z,79.98
2018-02-23T02:20:22.330Z,80.17
2018-02-23T02:21:22.332Z,79.79
2018-02-23T02:22:22.327Z,79.98
2018-02-23T02:23:22.337Z,79.88
2018-02-23T02:24:22.330Z,79.79
2018-02-23T02:25:22.335Z,79.98
2018-02-23T02:26:22.336Z,79.98
2018-02-23T02:27:22.335Z,80.26
2018-02-23T02:28:22.338Z,79.98
2018-02-23T02:29:22.342Z,79.98
2018-02-23T02:30:22.340Z,80.36
2018-02-23T02:31:22.336Z,80.55
2018-02-23T02:32:22.338Z,80.26
2018-02-23T02:33:22.338Z,80.74
2018-02-23T02:34:22.345Z,80.55
2018-02-23T02:35:22.345Z,80.17
2018-02-23T02:36:22.347Z,81.12
2018-02-23T02:37:22.343Z,80.93
2018-02-23T02:38:22.346Z,81.02
2018-02-23T02:39:22.351Z,81.12
2018-02-23T02:40:22.348Z,81.02
2018-02-23T02:41:22.345Z,80.83
2018-02-23T02:42:22.356Z,80.93
2018-02-23T02:43:22.352Z,81.40
2018-02-23T02:44:22.355Z,81.30
2018-02-23T02:45:22.346Z,80.83
2018-02-23T02:46:22.354Z,81.02
2018-02-23T02:47:22.359Z,80.93
2018-02-23T02:48:22.417Z,81.30
2018-02-23T02:49:22.354Z,81.68
2018-02-23T02:50:22.354Z,81.49
2018-02-23T02:51:22.359Z,81.40
2018-02-23T02:52:23.040Z,81.59
2018-02-23T02:53:22.360Z,81.02
2018-02-23T02:54:22.359Z,81.02
2018-02-23T02:55:22.361Z,81.02
2018-02-23T02:56:22.364Z,81.30
2018-02-23T02:57:22.370Z,81.12
2018-02-23T02:58:22.365Z,81.02
2018-02-23T02:59:22.365Z,81.59
2018-02-23T03:00:22.364Z,81.49
2018-02-23T03:01:22.361Z,81.68
2018-02-23T03:02:22.367Z,81.77
2018-02-23T03:03:22.367Z,81.49
2018-02-23T03:04:22.368Z,81.87
2018-02-23T03:05:22.370Z,82.15
2018-02-23T03:06:22.368Z,82.25
2018-02-23T03:07:22.368Z,82.15
2018-02-23T03:08:22.375Z,82.25
2018-02-23T03:09:22.378Z,82.63
2018-02-23T03:10:22.389Z,82.44
2018-02-23T03:11:22.374Z,82.82
2018-02-23T03:12:22.376Z,82.63
2018-02-23T03:13:22.375Z,82.63
2018-02-23T03:14:22.380Z,82.63
2018-02-23T03:15:22.379Z,82.82
2018-02-23T03:16:22.388Z,82.63
2018-02-23T03:17:22.372Z,83.01
2018-02-23T03:18:22.383Z,82.91
2018-02-23T03:19:22.376Z,82.91
2018-02-23T03:20:22.388Z,82.82
2018-02-23T03:21:22.383Z,83.39
2018-02-23T03:22:22.379Z,83.48
2018-02-23T03:23:22.388Z,83.39
2018-02-23T03:24:22.416Z,83.01
2018-02-23T03:25:22.382Z,83.25
2018-02-23T03:26:22.384Z,83.44
2018-02-23T03:27:22.392Z,83.67
2018-02-23T03:28:22.395Z,83.48
2018-02-23T03:29:22.391Z,84.05
2018-02-23T03:30:22.385Z,83.34
2018-02-23T03:31:22.391Z,84.10
2018-02-23T03:32:22.396Z,84.14
2018-02-23T03:33:22.395Z,84.48
2018-02-23T03:34:22.385Z,84.29
2018-02-23T03:35:22.406Z,84.29
2018-02-23T03:36:22.391Z,84.29
2018-02-23T03:37:22.397Z,84.20
2018-02-23T03:38:22.388Z,84.48
2018-02-23T03:39:22.392Z,84.39
2018-02-23T03:40:22.396Z,84.67
2018-02-23T03:41:22.388Z,84.58
2018-02-23T03:42:22.391Z,85.24
2018-02-23T03:43:22.399Z,84.95
2018-02-23T03:44:22.390Z,84.95
2018-02-23T03:45:22.390Z,85.24
2018-02-23T03:46:22.397Z,85.33
2018-02-23T03:47:22.403Z,85.52
2018-02-23T03:48:22.396Z,85.52
2018-02-23T03:49:22.394Z,85.52
2018-02-23T03:50:22.395Z,85.80
2018-02-23T03:51:22.395Z,85.99
2018-02-23T03:52:22.402Z,86.18
2018-02-23T03:53:22.404Z,85.90
2018-02-23T03:54:22.406Z,86.47
2018-02-23T03:55:22.402Z,86.37
2018-02-23T03:56:22.398Z,86.28
2018-02-23T03:57:22.403Z,86.66
2018-02-23T03:58:22.394Z,86.37
2018-02-23T03:59:22.400Z,86.47
2018-02-23T04:00:22.410Z,86.56
2018-02-23T04:01:22.400Z,86.66
2018-02-23T04:02:22.399Z,86.66
2018-02-23T04:03:22.399Z,86.66
2018-02-23T04:04:22.404Z,86.56
2018-02-23T04:05:22.425Z,86.66
2018-02-23T04:06:22.399Z,86.75
2018-02-23T04:07:22.399Z,86.85
2018-02-23T04:08:22.404Z,86.75
2018-02-23T04:09:22.402Z,86.66
2018-02-23T04:10:22.403Z,87.04
2018-02-23T04:11:22.400Z,87.41
2018-02-23T04:12:22.402Z,87.23
2018-02-23T04:13:22.414Z,87.04
2018-02-23T04:14:22.403Z,86.94
2018-02-23T04:15:22.407Z,87.32
2018-02-23T04:16:22.413Z,87.04
2018-02-23T04:17:22.402Z,87.13
2018-02-23T04:18:22.413Z,86.94
2018-02-23T04:19:22.403Z,86.85
2018-02-23T04:20:22.402Z,87.51
2018-02-23T04:21:22.400Z,87.60
2018-02-23T04:22:22.405Z,87.51
2018-02-23T04:23:22.407Z,87.32
2018-02-23T04:24:22.401Z,87.60
2018-02-23T04:25:22.399Z,87.51
2018-02-23T04:26:22.398Z,87.23
2018-02-23T04:27:22.406Z,87.41
2018-02-23T04:28:22.404Z,87.51
2018-02-23T04:29:22.402Z,87.32
2018-02-23T04:30:22.404Z,87.32
2018-02-23T04:31:22.404Z,87.23
2018-02-23T04:32:22.403Z,87.32
2018-02-23T04:33:22.408Z,87.32
2018-02-23T04:34:22.403Z,87.32
2018-02-23T04:35:22.402Z,87.23
2018-02-23T04:36:22.405Z,87.51
2018-02-23T04:37:22.404Z,87.70
2018-02-23T04:38:22.408Z,87.79
2018-02-23T04:39:22.415Z,87.79
2018-02-23T04:40:22.406Z,87.70
2018-02-23T04:41:22.415Z,87.32
2018-02-23T04:42:22.401Z,87.41
2018-02-23T04:43:22.407Z,86.85
2018-02-23T04:44:22.407Z,87.23
2018-02-23T04:45:22.422Z,87.04
2018-02-23T04:46:22.401Z,87.13
2018-02-23T04:47:22.413Z,87.23
2018-02-23T04:48:22.406Z,87.60
2018-02-23T04:49:22.407Z,87.32
2018-02-23T04:50:22.400Z,87.60
2018-02-23T04:51:22.403Z,87.23
2018-02-23T04:52:22.404Z,87.51
2018-02-23T04:53:22.408Z,87.18
2018-02-23T04:54:22.395Z,87.32
2018-02-23T04:55:22.402Z,87.18
2018-02-23T04:56:22.400Z,87.18
2018-02-23T04:57:22.401Z,87.37
2018-02-23T04:58:22.401Z,87.46
2018-02-23T04:59:22.412Z,86.90
2018-02-23T05:00:22.399Z,86.90
2018-02-23T05:01:22.401Z,87.08
2018-02-23T05:02:22.410Z,87.08
2018-02-23T05:03:22.402Z,87.37
2018-02-23T05:04:22.403Z,87.27
2018-02-23T05:05:22.403Z,87.46
2018-02-23T05:06:22.402Z,87.65
2018-02-23T05:07:22.416Z,87.27
2018-02-23T05:08:22.404Z,87.84
2018-02-23T05:09:22.400Z,87.55
2018-02-23T05:10:22.396Z,87.65
2018-02-23T05:11:22.396Z,87.55
2018-02-23T05:12:22.402Z,87.46
2018-02-23T05:13:22.410Z,88.12
2018-02-23T05:14:22.409Z,88.22
2018-02-23T05:15:22.401Z,88.12
2018-02-23T05:16:22.397Z,88.12
2018-02-23T05:17:22.402Z,88.03
2018-02-23T05:18:22.399Z,88.03
2018-02-23T05:19:22.395Z,87.84
2018-02-23T05:20:22.396Z,88.31
2018-02-23T05:21:22.394Z,88.31
2018-02-23T05:22:22.398Z,87.84
2018-02-23T05:23:22.393Z,88.03
2018-02-23T05:24:22.396Z,87.84
2018-02-23T05:25:22.395Z,88.22
2018-02-23T05:26:22.396Z,88.12
2018-02-23T05:27:22.395Z,88.22
2018-02-23T05:28:22.396Z,88.03
2018-02-23T05:29:22.395Z,88.22
2018-02-23T05:30:22.396Z,88.22
2018-02-23T05:31:22.392Z,87.74
2018-02-23T05:32:22.394Z,88.12
2018-02-23T05:33:22.392Z,88.03
2018-02-23T05:34:22.390Z,87.84
2018-02-23T05:35:22.395Z,88.03
2018-02-23T05:36:22.401Z,87.84
2018-02-23T05:37:23.063Z,87.84
2018-02-23T05:38:22.387Z,87.93
2018-02-23T05:39:22.390Z,88.03
2018-02-23T05:40:22.388Z,88.22
2018-02-23T05:41:22.391Z,88.22
2018-02-23T05:42:22.392Z,87.93
2018-02-23T05:43:22.385Z,87.74
2018-02-23T05:44:22.453Z,87.74
2018-02-23T05:45:22.442Z,87.93
2018-02-23T05:46:22.391Z,87.93
2018-02-23T05:47:22.382Z,88.03
2018-02-23T05:48:22.381Z,88.12
2018-02-23T05:49:22.384Z,87.46
2018-02-23T05:50:22.392Z,87.55
2018-02-23T05:51:22.433Z,87.27
2018-02-23T05:52:22.409Z,87.46
2018-02-23T05:53:22.384Z,87.37
2018-02-23T05:54:22.385Z,87.37
2018-02-23T05:55:22.387Z,87.37
2018-02-23T05:56:22.391Z,87.18
2018-02-23T05:57:22.380Z,86.99
2018-02-23T05:58:22.378Z,87.37
2018-02-23T05:59:22.378Z,87.18
2018-02-23T06:00:22.379Z,87.27
2018-02-23T06:01:22.379Z,86.99
2018-02-23T06:02:22.377Z,86.90
2018-02-23T06:03:22.380Z,86.71
2018-02-23T06:04:22.406Z,86.61
2018-02-23T06:05:22.381Z,86.42
2018-02-23T06:06:22.374Z,86.42
2018-02-23T06:07:22.376Z,86.42
2018-02-23T06:08:22.375Z,86.52
2018-02-23T06:09:22.373Z,86.52
2018-02-23T06:10:22.379Z,86.80
2018-02-23T06:11:22.375Z,86.80
2018-02-23T06:12:24.425Z,86.52
2018-02-23T06:13:22.963Z,86.42
2018-02-23T06:14:23.929Z,86.42
2018-02-23T06:15:22.374Z,86.42
2018-02-23T06:16:22.373Z,85.76
2018-02-23T06:17:22.372Z,85.95
2018-02-23T06:18:22.373Z,85.85
2018-02-23T06:19:22.370Z,85.95
2018-02-23T06:20:22.368Z,85.47
2018-02-23T06:21:22.371Z,85.38
2018-02-23T06:22:22.367Z,85.00
2018-02-23T06:23:22.371Z,85.10
2018-02-23T06:24:23.070Z,84.91
2018-02-23T06:25:22.369Z,85.19
2018-02-23T06:26:22.364Z,84.34
2018-02-23T06:27:22.364Z,84.53
2018-02-23T06:28:22.368Z,84.34
2018-02-23T06:29:22.369Z,84.25
2018-02-23T06:30:22.365Z,84.63
2018-02-23T06:31:22.361Z,83.87
2018-02-23T06:32:22.364Z,84.06
2018-02-23T06:33:22.367Z,83.30
2018-02-23T06:34:22.361Z,83.59
2018-02-23T06:35:22.362Z,83.68
2018-02-23T06:36:22.360Z,83.40
2018-02-23T06:37:22.361Z,83.59
2018-02-23T06:38:22.354Z,83.78
2018-02-23T06:39:22.359Z,85.19
2018-02-23T06:40:22.391Z,85.66
2018-02-23T06:41:22.356Z,84.91
2018-02-23T06:42:22.358Z,85.28
2018-02-23T06:43:22.355Z,84.25
2018-02-23T06:44:22.371Z,83.02
2018-02-23T06:45:22.352Z,82.92
2018-02-23T06:46:22.361Z,83.49
2018-02-23T06:47:22.355Z,83.02
2018-02-23T06:48:22.356Z,82.64
2018-02-23T06:49:22.351Z,82.83
2018-02-23T06:50:22.359Z,82.73
2018-02-23T06:51:22.363Z,82.31
2018-02-23T06:52:22.357Z,82.68
2018-02-23T06:53:22.350Z,82.40
2018-02-23T06:54:22.362Z,81.70
2018-02-23T06:55:22.349Z,81.51
2018-02-23T06:56:22.356Z,81.98
2018-02-23T06:57:22.353Z,81.88
2018-02-23T06:58:22.348Z,81.83
2018-02-23T06:59:22.347Z,81.36
2018-02-23T07:00:22.390Z,81.45
2018-02-23T07:01:22.356Z,81.26
2018-02-23T07:02:22.353Z,80.46
2018-02-23T07:03:22.349Z,81.03
2018-02-23T07:04:22.344Z,81.13
2018-02-23T07:05:22.347Z,80.84
2018-02-23T07:06:22.344Z,80.94
2018-02-23T07:07:22.352Z,80.75
2018-02-23T07:08:22.345Z,80.94
2018-02-23T07:09:22.344Z,80.46
2018-02-23T07:10:22.342Z,80.56
2018-02-23T07:11:22.348Z,80.75
2018-02-23T07:12:22.341Z,80.37
2018-02-23T07:13:22.340Z,80.65
2018-02-23T07:14:22.341Z,80.27
2018-02-23T07:15:22.342Z,80.37
2018-02-23T07:16:22.343Z,79.90
2018-02-23T07:17:22.342Z,79.99
2018-02-23T07:18:22.342Z,79.90
2018-02-23T07:19:22.343Z,79.90
2018-02-23T07:20:22.345Z,79.33
2018-02-23T07:21:22.343Z,79.43
2018-02-23T07:22:22.344Z,79.56
2018-02-23T07:23:22.339Z,78.58
2018-02-23T07:24:22.335Z,78.76
2018-02-23T07:25:22.338Z,78.80
2018-02-23T07:26:22.336Z,78.86
2018-02-23T07:27:22.341Z,78.71
2018-02-23T07:28:22.382Z,77.95
2018-02-23T07:29:22.337Z,77.95
2018-02-23T07:30:22.339Z,77.76
2018-02-23T07:31:22.339Z,77.58
2018-02-23T07:32:22.339Z,77.58
2018-02-23T07:33:22.339Z,77.48
2018-02-23T07:34:22.334Z,77.58
2018-02-23T07:35:22.334Z,77.48
2018-02-23T07:36:22.335Z,77.10
2018-02-23T07:37:22.334Z,76.63
2018-02-23T07:38:22.333Z,77.01
2018-02-23T07:39:22.332Z,76.82
2018-02-23T07:40:22.339Z,77.01
2018-02-23T07:41:22.346Z,76.72
2018-02-23T07:42:22.337Z,76.25
2018-02-23T07:43:22.334Z,76.06
2018-02-23T07:44:22.337Z,75.87
2018-02-23T07:45:22.337Z,75.78
2018-02-23T07:46:22.334Z,75.49
2018-02-23T07:47:22.332Z,75.40
2018-02-23T07:48:22.337Z,74.83
2018-02-23T07:49:22.335Z,75.21
2018-02-23T07:50:22.371Z,74.55
2018-02-23T07:51:22.331Z,74.45
2018-02-23T07:52:22.335Z,74.26
2018-02-23T07:53:22.334Z,73.32
2018-02-23T07:54:22.330Z,73.22
2018-02-23T07:55:22.337Z,71.90
2018-02-23T07:56:22.334Z,71.61
2018-02-23T07:57:22.333Z,71.04
2018-02-23T07:58:22.333Z,70.95
2018-02-23T07:59:22.345Z,70.10
2018-02-23T08:00:22.339Z,70.20
2018-02-23T08:01:22.334Z,69.38
2018-02-23T08:02:22.339Z,68.27
2018-02-23T08:03:22.346Z,66.32
2018-02-23T08:04:22.332Z,63.70
2018-02-23T08:05:22.334Z,60.31
2018-02-23T08:06:22.334Z,57.66
2018-02-23T08:07:22.339Z,55.86
2018-02-23T08:08:22.335Z,55.41
2018-02-23T08:09:22.333Z,53.14
2018-02-23T08:10:22.340Z,52.37
2018-02-23T08:11:22.339Z,51.62
2018-02-23T08:12:22.346Z,51.62
2018-02-23T08:13:22.348Z,50.57
2018-02-23T08:14:22.380Z,50.20
2018-02-23T08:15:22.353Z,50.29
2018-02-23T08:16:22.357Z,50.01
2018-02-23T08:17:22.360Z,49.51
2018-02-23T08:18:22.370Z,49.63
2018-02-23T08:19:22.370Z,48.77
2018-02-23T08:20:22.377Z,48.49
2018-02-23T08:21:22.380Z,47.92
2018-02-23T08:22:22.385Z,48.39
2018-02-23T08:23:22.391Z,48.58
2018-02-23T08:24:22.399Z,48.03
2018-02-23T08:25:22.399Z,47.34
2018-02-23T08:26:22.407Z,48.08
2018-02-23T08:27:22.416Z,48.84
2018-02-23T08:28:22.415Z,50.24
2018-02-23T08:29:22.425Z,51.16
2018-02-23T08:30:22.435Z,52.39
2018-02-23T08:31:22.434Z,53.34
2018-02-23T08:32:22.442Z,53.63
2018-02-23T08:33:22.443Z,54.35
2018-02-23T08:34:22.443Z,54.64
2018-02-23T08:35:22.455Z,55.58
2018-02-23T08:36:22.455Z,55.68
2018-02-23T08:37:22.464Z,56.34
2018-02-23T08:38:22.463Z,56.44
2018-02-23T08:39:22.471Z,57.07
2018-02-23T08:40:22.474Z,57.20
2018-02-23T08:41:22.478Z,56.98
2018-02-23T08:42:22.482Z,56.98
2018-02-23T08:43:22.486Z,57.10
2018-02-23T08:44:22.551Z,57.39
2018-02-23T08:45:22.491Z,57.10
2018-02-23T08:46:22.490Z,56.63
2018-02-23T08:47:22.497Z,57.07
2018-02-23T08:48:22.500Z,57.95
2018-02-23T08:49:22.503Z,57.86
2018-02-23T08:50:22.501Z,57.57
2018-02-23T08:51:22.503Z,57.76
2018-02-23T08:52:22.506Z,57.67
2018-02-23T08:53:22.511Z,57.86
2018-02-23T08:54:22.506Z,57.76
2018-02-23T08:55:22.511Z,57.76
2018-02-23T08:56:22.518Z,57.64
2018-02-23T08:57:22.520Z,57.95
2018-02-23T08:58:22.520Z,58.52
2018-02-23T08:59:22.523Z,58.02
2018-02-23T09:00:22.521Z,58.40
2018-02-23T09:01:22.560Z,58.30
2018-02-23T09:02:22.526Z,58.21
2018-02-23T09:03:22.528Z,58.59
2018-02-23T09:04:22.528Z,58.49
2018-02-23T09:05:22.533Z,58.49
2018-02-23T09:06:22.535Z,58.62
2018-02-23T09:07:22.538Z,58.05
2018-02-23T09:08:22.537Z,57.10
2018-02-23T09:09:22.538Z,57.10
2018-02-23T09:10:22.542Z,56.72
2018-02-23T09:11:22.545Z,56.75
2018-02-23T09:12:22.537Z,55.90
2018-02-23T09:13:22.540Z,55.62
2018-02-23T09:14:22.542Z,55.80
2018-02-23T09:15:22.545Z,55.99
2018-02-23T09:16:22.555Z,55.71
2018-02-23T09:17:22.548Z,55.71
2018-02-23T09:18:23.103Z,55.62
2018-02-23T09:19:22.567Z,55.71
2018-02-23T09:20:22.564Z,55.90
2018-02-23T09:21:22.566Z,55.90
2018-02-23T09:22:22.567Z,55.62
2018-02-23T09:23:22.567Z,54.67
2018-02-23T09:24:22.566Z,55.24
2018-02-23T09:25:22.571Z,55.77
2018-02-23T09:26:22.570Z,55.40
2018-02-23T09:27:22.577Z,56.09
2018-02-23T09:28:22.576Z,56.56
2018-02-23T09:29:22.580Z,56.27
2018-02-23T09:30:22.578Z,56.46
2018-02-23T09:31:22.583Z,56.44
2018-02-23T09:32:22.580Z,57.20
2018-02-23T09:33:22.598Z,57.01
2018-02-23T09:34:22.588Z,57.01
2018-02-23T09:35:22.602Z,56.91
2018-02-23T09:36:22.592Z,56.34
2018-02-23T09:37:22.594Z,56.25
2018-02-23T09:38:22.604Z,56.44
2018-02-23T09:39:22.600Z,56.94
2018-02-23T09:40:22.609Z,55.99
2018-02-23T09:41:22.604Z,55.33
2018-02-23T09:42:22.613Z,54.57
2018-02-23T09:43:22.611Z,54.22
2018-02-23T09:44:22.619Z,53.37
2018-02-23T09:45:22.616Z,52.45
2018-02-23T09:46:22.653Z,51.59
2018-02-23T09:47:22.626Z,50.83
2018-02-23T09:48:22.634Z,50.74
2018-02-23T09:49:22.630Z,50.83
2018-02-23T09:50:22.635Z,50.62
2018-02-23T09:51:22.637Z,50.64
2018-02-23T09:52:22.641Z,50.48
2018-02-23T09:53:22.645Z,49.27
2018-02-23T09:54:22.650Z,47.94
2018-02-23T09:55:22.656Z,47.37
2018-02-23T09:56:23.616Z,46.70
2018-02-23T09:57:22.670Z,46.90
2018-02-23T09:58:22.665Z,46.99
2018-02-23T09:59:22.675Z,45.85
2018-02-23T10:00:22.678Z,45.28
2018-02-23T10:01:22.691Z,44.90
2018-02-23T10:02:22.685Z,44.71
2018-02-23T10:03:22.693Z,44.81
2018-02-23T10:04:22.703Z,45.66
2018-02-23T10:05:22.711Z,44.43
2018-02-23T10:06:22.712Z,44.71
2018-02-23T10:07:22.719Z,45.64
2018-02-23T10:08:22.724Z,45.83
2018-02-23T10:09:22.729Z,46.56
2018-02-23T10:10:22.739Z,47.39
2018-02-23T10:11:22.746Z,48.18
2018-02-23T10:12:22.747Z,47.73
2018-02-23T10:13:22.757Z,46.97
2018-02-23T10:14:22.768Z,46.49
2018-02-23T10:15:22.769Z,46.09
2018-02-23T10:16:22.771Z,46.85
2018-02-23T10:17:22.778Z,47.68
2018-02-23T10:18:22.788Z,48.25
2018-02-23T10:19:22.796Z,48.46
2018-02-23T10:20:22.796Z,48.27
2018-02-23T10:21:22.801Z,47.80
2018-02-23T10:22:22.812Z,47.32
2018-02-23T10:23:22.818Z,47.52
2018-02-23T10:24:22.822Z,47.04
2018-02-23T10:25:22.836Z,46.94
2018-02-23T10:26:22.830Z,46.02
2018-02-23T10:27:22.865Z,45.54
2018-02-23T10:28:22.852Z,45.33
2018-02-23T10:29:22.855Z,44.95
2018-02-23T10:30:22.857Z,45.52
2018-02-23T10:31:22.862Z,46.09
2018-02-23T10:32:22.864Z,46.09
2018-02-23T10:33:22.875Z,46.66
2018-02-23T10:34:22.880Z,46.94
2018-02-23T10:35:22.889Z,46.56
2018-02-23T10:36:22.894Z,46.94
2018-02-23T10:37:22.900Z,46.94
2018-02-23T10:38:22.905Z,46.47
2018-02-23T10:39:22.912Z,46.37
2018-02-23T10:40:22.915Z,46.85
2018-02-23T10:41:22.917Z,46.09
2018-02-23T10:42:22.925Z,45.81
2018-02-23T10:43:22.935Z,45.71
2018-02-23T10:44:22.937Z,45.45
2018-02-23T10:45:22.941Z,44.60
2018-02-23T10:46:22.948Z,43.65
2018-02-23T10:47:22.950Z,43.93
2018-02-23T10:48:22.959Z,43.55
2018-02-23T10:49:22.964Z,43.46
2018-02-23T10:50:22.968Z,43.46
2018-02-23T10:51:22.975Z,43.65
2018-02-23T10:52:22.973Z,43.46
2018-02-23T10:53:22.988Z,43.46
2018-02-23T10:54:22.989Z,43.46
2018-02-23T10:55:23.002Z,43.17
2018-02-23T10:56:23.000Z,43.27
2018-02-23T10:57:23.015Z,43.46
2018-02-23T10:58:23.014Z,43.65
2018-02-23T10:59:23.016Z,43.62
2018-02-23T11:00:23.028Z,43.65
2018-02-23T11:01:23.040Z,43.55
2018-02-23T11:02:23.049Z,43.27
2018-02-23T11:03:23.041Z,43.27
2018-02-23T11:04:23.057Z,43.27
2018-02-23T11:05:23.055Z,43.55
2018-02-23T11:06:23.063Z,43.74
2018-02-23T11:07:23.067Z,43.74
2018-02-23T11:08:23.077Z,43.55
2018-02-23T11:09:23.078Z,43.65
2018-02-23T11:10:23.089Z,43.74
2018-02-23T11:11:23.094Z,43.65
2018-02-23T11:12:23.100Z,43.65
2018-02-23T11:13:23.102Z,43.65
2018-02-23T11:14:23.114Z,43.74
2018-02-23T11:15:23.121Z,43.17
2018-02-23T11:16:23.122Z,42.70
2018-02-23T11:17:23.129Z,43.08
2018-02-23T11:18:23.138Z,43.65
2018-02-23T11:19:23.145Z,43.55
2018-02-23T11:20:23.147Z,43.55
2018-02-23T11:21:23.155Z,43.53
2018-02-23T11:22:23.158Z,43.91
2018-02-23T11:23:23.163Z,44.76
2018-02-23T11:24:23.174Z,44.38
2018-02-23T11:25:23.182Z,44.40
2018-02-23T11:26:23.180Z,44.12
2018-02-23T11:27:23.188Z,43.36
2018-02-23T11:28:23.196Z,43.55
2018-02-23T11:29:23.201Z,43.36
2018-02-23T11:30:23.243Z,43.62
2018-02-23T11:31:23.209Z,43.62
2018-02-23T11:32:23.219Z,44.67
2018-02-23T11:33:23.220Z,44.48
2018-02-23T11:34:23.223Z,44.67
2018-02-23T11:35:23.231Z,44.67
2018-02-23T11:36:23.240Z,44.67
2018-02-23T11:37:23.241Z,44.76
2018-02-23T11:38:23.247Z,44.67
2018-02-23T11:39:23.254Z,44.20
2018-02-23T11:40:23.257Z,44.67
2018-02-23T11:41:23.270Z,43.84
2018-02-23T11:42:23.272Z,43.53
2018-02-23T11:43:23.272Z,43.46
2018-02-23T11:44:23.274Z,43.53
2018-02-23T11:45:23.281Z,43.82
2018-02-23T11:46:23.289Z,43.62
2018-02-23T11:47:23.294Z,43.65
2018-02-23T11:48:23.292Z,43.34
2018-02-23T11:49:23.300Z,43.72
2018-02-23T11:50:23.354Z,43.91
2018-02-23T11:51:23.311Z,44.57
2018-02-23T11:52:23.318Z,44.48
2018-02-23T11:53:23.319Z,44.48
2018-02-23T11:54:23.323Z,44.85
2018-02-23T11:55:23.326Z,45.43
2018-02-23T11:56:23.341Z,45.40
2018-02-23T11:57:23.335Z,45.43
2018-02-23T11:58:23.345Z,45.52
2018-02-23T11:59:23.352Z,45.33
2018-02-23T12:00:23.353Z,45.33
2018-02-23T12:01:23.358Z,45.43
2018-02-23T12:02:23.361Z,45.78
2018-02-23T12:03:23.364Z,46.07
2018-02-23T12:04:23.369Z,46.35
2018-02-23T12:05:23.372Z,47.02
2018-02-23T12:06:23.378Z,46.73
2018-02-23T12:07:23.383Z,46.73
2018-02-23T12:08:23.386Z,47.11
2018-02-23T12:09:23.390Z,47.30
2018-02-23T12:10:23.389Z,47.49
2018-02-23T12:11:23.395Z,47.68
2018-02-23T12:12:23.395Z,47.20
2018-02-23T12:13:23.397Z,47.30
2018-02-23T12:14:23.403Z,47.49
2018-02-23T12:15:23.409Z,47.58
2018-02-23T12:16:23.413Z,47.49
2018-02-23T12:17:23.426Z,48.15
2018-02-23T12:18:23.420Z,48.44
2018-02-23T12:19:23.428Z,48.54
2018-02-23T12:20:23.424Z,48.91
2018-02-23T12:21:23.495Z,48.72
2018-02-23T12:22:23.430Z,48.72
2018-02-23T12:23:23.439Z,48.44
2018-02-23T12:24:23.439Z,48.34
2018-02-23T12:25:23.447Z,48.44
2018-02-23T12:26:23.448Z,48.25
2018-02-23T12:27:23.453Z,48.44
2018-02-23T12:28:23.480Z,47.77
2018-02-23T12:29:23.456Z,48.15
2018-02-23T12:30:23.456Z,47.96
2018-02-23T12:31:23.462Z,48.25
2018-02-23T12:32:23.467Z,47.71
2018-02-23T12:33:23.463Z,47.52
2018-02-23T12:34:23.466Z,47.32
2018-02-23T12:35:23.512Z,47.23
2018-02-23T12:36:23.474Z,47.11
2018-02-23T12:37:23.475Z,47.39
2018-02-23T12:38:23.475Z,47.68
2018-02-23T12:39:23.475Z,47.30
2018-02-23T12:40:23.483Z,47.87
2018-02-23T12:41:23.480Z,48.25
2018-02-23T12:42:23.486Z,48.44
2018-02-23T12:43:23.490Z,48.15
2018-02-23T12:44:23.494Z,48.63
2018-02-23T12:45:23.499Z,48.44
2018-02-23T12:46:23.501Z,48.15
2018-02-23T12:47:23.499Z,48.06
2018-02-23T12:48:23.506Z,47.96
2018-02-23T12:49:23.502Z,48.54
2018-02-23T12:50:23.505Z,48.72
2018-02-23T12:51:23.521Z,48.44
2018-02-23T12:52:23.516Z,48.54